Roberts Field
KRDM : now visible

Airfield :











YOU CAN JOIN US ON...

 
LOGIN :

Register | Disclaimer

   EN    FR    IT 

 









Legend :    VFR   Marginal VFR   IFR   Intensive IFR   Very Intensive IFR
Visi :
Ceiling :
>= 8 km
>= 3000ft
5 to 8 km
1000 to 3000 ft
1500m to 5 km
500 to 1000 ft
800 to 1500m
200 to 500 ft
< 800m
< 200 ft
Symbols :   Thunderstorms  Fog  Heavy snow  Heavy precipitations  Wind > 20 kt






- Airport Elevation : 3080 ft
- IATA code : RDM


KRDM - Roberts Field

CURRENT METAR :
  • 230356Z 00000KT 10SM FEW042 SCT049 BKN060 08/04 A2985 RMK AO2 SLP107 T00780039

EXPIRED METARs :
  • 230256Z 00000KT 10SM SCT100 08/04 A2983 RMK AO2 SLP102 T00780039 51005
  • 230156Z 09004KT 10SM OVC037 09/04 A2983 RMK AO2 SLP100 T00890039

TAF KRDM
Valid from the 23 at 00:00 until the 24 at 00:00 UTC


222338Z 2300/2324 30008KT P6SM VCSH FEW025 BKN050
FM230300 18005KT P6SM SCT050
FM231200 17005KT 5SM -RA BR BKN030 OVC050
FM232100 21006KT P6SM BKN050
KZSE FIR / North America



MET'MAP, your aeronautical weather chart ! - Copyright ORBIFLY December 2007 - Disclaimer

ORBIFLY MET'MAP TEAM :

Programming & Development : Alexandra Zaïnal
Concept & original design : Baudouin d'Aumeries
Assistance for programming : Marc-Olivier Méhu
Technical & hardware support : Manuel Goepfert

Contact : metmap@orbifly.com




SOURCES & CREDITS :

   NOAA       Earth
Advisory